Time;durP1;ratioP1;P1;durP2;ratioP2;P2;SDS_P1;SDS_P2;PMS_P1;PMS_P2;Temp;Humidity;BMP_temperature;BMP_pressure;BME280_temperature;BME280_humidity;BME280_pressure;Samples;Min_cycle;Max_cycle;Signal;HPM_P1;HPM_P2
2022/05/07 00:00:03;;;;;;;8.77;3.33;;;;;;;12.75;54.29;100346.72;3121442;28;20091;-72
2022/05/07 00:01:35;;;;;;;7.53;3.25;;;;;;;12.77;54.35;100344.00;3121306;28;20411;-72
2022/05/07 00:03:07;;;;;;;6.60;3.38;;;;;;;12.78;54.51;100348.31;3121317;28;20103;-71
2022/05/07 00:04:39;;;;;;;7.32;3.15;;;;;;;12.78;54.13;100343.97;3114993;28;20049;-72
2022/05/07 00:06:11;;;;;;;6.35;2.88;;;;;;;12.78;54.29;100346.56;3121322;28;20049;-72
2022/05/07 00:07:43;;;;;;;15.07;3.40;;;;;;;12.74;54.27;100342.38;3121176;28;20136;-72
2022/05/07 00:09:15;;;;;;;5.38;2.97;;;;;;;12.76;54.54;100348.41;3121279;28;20053;-71
2022/05/07 00:10:47;;;;;;;5.75;3.10;;;;;;;12.67;54.74;100335.75;3121391;28;20060;-72
2022/05/07 00:12:20;;;;;;;9.80;3.17;;;;;;;12.60;55.30;100336.94;3120963;28;20423;-72
2022/05/07 00:13:52;;;;;;;10.25;3.17;;;;;;;12.56;55.45;100340.59;3121206;28;20057;-71
2022/05/07 00:15:24;;;;;;;10.27;3.25;;;;;;;12.48;55.41;100333.97;3121085;28;20057;-72
2022/05/07 00:18:45;;;;;;;7.10;3.25;;;;;;;12.42;55.97;100331.63;3115917;28;20663;-72
2022/05/07 00:20:17;;;;;;;9.30;3.42;;;;;;;12.42;56.11;100334.25;3121099;28;20061;-71
2022/05/07 00:21:49;;;;;;;11.77;3.47;;;;;;;12.44;56.05;100335.00;3123606;28;20096;-71
2022/05/07 00:23:21;;;;;;;6.93;3.55;;;;;;;12.28;55.90;100306.13;3120957;28;20049;-72
2022/05/07 00:24:52;;;;;;;9.02;3.35;;;;;;;12.44;56.22;100331.56;3121185;28;20049;-71
2022/05/07 00:26:24;;;;;;;7.50;3.50;;;;;;;12.47;55.87;100336.63;3121058;28;20060;-72
2022/05/07 00:27:58;;;;;;;10.85;3.67;;;;;;;12.49;56.14;100333.03;3120967;28;20482;-72
2022/05/07 00:29:29;;;;;;;;;;;;;;;12.51;55.84;100339.06;3121727;28;20049;-71
2022/05/07 00:31:01;;;;;;;9.10;3.53;;;;;;;12.53;55.66;100333.75;3120944;28;19921;-71
2022/05/07 00:32:33;;;;;;;10.80;3.78;;;;;;;12.46;55.49;100316.66;3120876;28;20115;-72
2022/05/07 00:34:05;;;;;;;12.65;3.30;;;;;;;12.56;55.92;100324.94;3120891;28;20127;-72
2022/05/07 00:35:37;;;;;;;9.30;3.75;;;;;;;12.58;55.68;100323.09;3121148;28;20061;-71
2022/05/07 00:37:09;;;;;;;12.30;3.55;;;;;;;12.57;56.14;100335.31;3120809;28;20430;-72
2022/05/07 00:38:40;;;;;;;10.18;3.05;;;;;;;12.40;56.16;100312.56;3120775;28;20530;-72
2022/05/07 00:40:12;;;;;;;6.68;3.13;;;;;;;12.38;56.63;100321.38;3120859;28;20199;-71
2022/05/07 00:41:44;;;;;;;10.50;4.07;;;;;;;12.37;56.82;100324.91;3121149;28;20129;-72
2022/05/07 00:43:17;;;;;;;7.43;3.28;;;;;;;12.33;56.99;100323.34;3121007;28;20119;-71
2022/05/07 00:44:50;;;;;;;8.40;3.40;;;;;;;12.18;57.22;100315.25;3120918;28;20514;-71
2022/05/07 00:46:25;;;;;;;8.20;3.50;;;;;;;12.16;57.63;100311.88;3120615;28;20046;-72
2022/05/07 00:47:57;;;;;;;11.57;3.50;;;;;;;12.21;57.29;100316.88;3120582;28;20060;-71
2022/05/07 00:49:29;;;;;;;8.40;3.50;;;;;;;12.25;57.13;100323.69;3120905;28;20111;-72
2022/05/07 00:52:50;;;;;;;6.72;3.65;;;;;;;12.23;57.24;100310.69;3120850;28;20132;-72
2022/05/07 00:54:23;;;;;;;7.65;3.63;;;;;;;12.26;57.50;100320.16;3120919;28;20065;-71
2022/05/07 00:55:55;;;;;;;9.68;3.88;;;;;;;12.22;57.33;100316.00;3120576;28;20096;-72
2022/05/07 00:57:27;;;;;;;10.45;3.92;;;;;;;12.22;57.05;100314.22;3120671;28;20063;-71
2022/05/07 00:59:01;;;;;;;8.50;3.78;;;;;;;12.28;57.38;100318.34;3120876;28;20056;-71
2022/05/07 01:00:33;;;;;;;14.73;3.90;;;;;;;12.33;57.05;100318.09;3114621;28;20103;-72
2022/05/07 01:02:05;;;;;;;14.25;4.20;;;;;;;12.35;57.34;100324.13;3120772;28;20100;-72
2022/05/07 01:03:38;;;;;;;9.48;4.07;;;;;;;12.32;57.22;100314.66;3120789;28;20068;-72
2022/05/07 01:05:11;;;;;;;10.07;4.10;;;;;;;12.34;57.31;100318.06;3120623;28;20053;-72
2022/05/07 01:06:42;;;;;;;9.20;3.38;;;;;;;12.25;57.26;100315.84;3120614;28;20087;-72
2022/05/07 01:08:14;;;;;;;13.32;4.05;;;;;;;12.32;57.41;100321.66;3120322;28;20049;-71
2022/05/07 01:09:47;;;;;;;6.90;3.25;;;;;;;12.31;57.41;100315.59;3120492;28;20053;-71
2022/05/07 01:11:20;;;;;;;9.35;3.38;;;;;;;12.32;57.63;100312.03;3117557;28;20053;-72
2022/05/07 01:12:52;;;;;;;10.30;3.75;;;;;;;12.33;57.25;100318.94;3114494;28;20507;-71
2022/05/07 01:14:25;;;;;;;12.55;3.42;;;;;;;12.38;57.31;100321.38;3120495;28;20510;-71
2022/05/07 01:15:58;;;;;;;9.52;3.80;;;;;;;12.37;57.28;100320.53;3120446;28;20050;-71
2022/05/07 01:17:32;;;;;;;8.60;3.47;;;;;;;12.28;57.45;100303.50;3120719;28;20605;-72
2022/05/07 01:19:04;;;;;;;6.25;3.53;;;;;;;12.36;57.39;100316.19;3120651;28;20093;-72
2022/05/07 01:20:35;;;;;;;9.32;4.20;;;;;;;12.40;57.35;100317.78;3120534;28;20052;-72
2022/05/07 01:22:08;;;;;;;8.75;3.65;;;;;;;12.39;57.52;100321.28;3123216;28;20139;-71
2022/05/07 01:23:41;;;;;;;11.20;4.03;;;;;;;12.38;57.59;100322.22;3120633;28;20202;-71
2022/05/07 01:25:13;;;;;;;9.35;3.60;;;;;;;12.36;57.59;100317.97;3114569;28;20056;-71
2022/05/07 01:26:44;;;;;;;7.18;3.05;;;;;;;12.30;57.31;100313.88;3120484;28;20053;-72
2022/05/07 01:28:16;;;;;;;11.45;4.10;;;;;;;12.27;57.56;100317.50;3120454;28;20075;-71
2022/05/07 01:29:48;;;;;;;12.30;3.97;;;;;;;12.26;57.50;100315.78;3120773;28;20050;-71
2022/05/07 01:31:20;;;;;;;10.15;3.67;;;;;;;12.23;57.64;100313.28;3120401;28;20053;-72
2022/05/07 01:32:52;;;;;;;9.30;3.60;;;;;;;12.21;57.98;100315.13;3120699;28;20127;-72
2022/05/07 01:34:24;;;;;;;13.60;4.38;;;;;;;12.20;58.10;100309.97;3120175;28;20049;-71
2022/05/07 01:35:56;;;;;;;8.05;3.35;;;;;;;12.18;58.12;100307.41;3120527;28;20073;-71
2022/05/07 01:37:29;;;;;;;8.93;3.58;;;;;;;12.17;57.97;100302.28;3120651;28;20053;-71
2022/05/07 01:39:01;;;;;;;8.85;4.32;;;;;;;12.16;58.16;100301.44;3120754;28;20104;-70
2022/05/07 01:40:33;;;;;;;7.90;3.75;;;;;;;12.16;58.15;100308.44;3120513;28;20108;-71
2022/05/07 01:42:05;;;;;;;8.50;4.03;;;;;;;12.16;58.31;100304.03;3120707;28;20115;-71
2022/05/07 01:43:36;;;;;;;12.13;3.47;;;;;;;12.16;57.70;100309.28;3120324;28;20510;-71
2022/05/07 01:45:09;;;;;;;6.57;3.75;;;;;;;12.10;57.97;100300.81;3120342;28;20350;-71
2022/05/07 01:48:29;;;;;;;7.88;3.70;;;;;;;12.04;57.78;100297.59;3120701;28;20148;-72
2022/05/07 01:50:01;;;;;;;11.00;3.75;;;;;;;12.14;58.05;100313.69;3120409;28;20052;-72
2022/05/07 01:51:33;;;;;;;9.48;4.35;;;;;;;12.12;58.16;100309.44;3120106;28;20123;-71
2022/05/07 01:53:07;;;;;;;8.50;3.90;;;;;;;12.15;58.07;100314.53;3115110;28;20084;-71
2022/05/07 01:54:38;;;;;;;6.93;4.05;;;;;;;12.15;57.98;100315.38;3120547;28;20133;-71
2022/05/07 01:56:10;;;;;;;11.68;3.92;;;;;;;12.14;58.19;100313.69;3120502;28;20103;-72
2022/05/07 01:57:42;;;;;;;10.02;3.75;;;;;;;12.10;57.82;100317.38;3120479;28;20056;-70
2022/05/07 01:59:14;;;;;;;9.00;4.10;;;;;;;12.05;58.12;100303.66;3121015;28;20580;-71
2022/05/07 02:00:46;;;;;;;11.18;4.25;;;;;;;12.02;57.83;100314.22;3123005;28;20114;-71
2022/05/07 02:02:18;;;;;;;10.95;3.90;;;;;;;11.99;58.21;100314.38;3122543;28;20049;-71
2022/05/07 02:03:51;;;;;;;7.97;3.65;;;;;;;11.99;58.03;100315.22;3116353;28;20049;-72
2022/05/07 02:05:23;;;;;;;10.55;3.63;;;;;;;11.96;58.32;100319.72;3122931;28;20054;-72
2022/05/07 02:06:55;;;;;;;8.95;4.45;;;;;;;11.90;58.19;100313.00;3121078;28;20053;-72
2022/05/07 02:08:28;;;;;;;12.40;4.65;;;;;;;11.92;58.29;100319.00;3122735;28;20522;-72
2022/05/07 02:10:00;;;;;;;9.68;3.88;;;;;;;11.90;58.38;100317.38;3122396;28;20463;-70
2022/05/07 02:11:32;;;;;;;7.25;4.20;;;;;;;11.87;58.61;100320.94;3122593;28;20057;-70
2022/05/07 02:13:04;;;;;;;6.50;4.18;;;;;;;11.87;58.47;100320.09;3122530;28;20053;-71
2022/05/07 02:14:35;;;;;;;8.18;4.25;;;;;;;11.86;58.85;100314.06;3122631;28;20053;-70
2022/05/07 02:16:07;;;;;;;9.80;4.10;;;;;;;11.84;58.56;100321.91;3122471;28;20716;-72
2022/05/07 02:17:37;;;;;;;7.90;4.30;;;;;;;11.70;59.03;100300.75;3122651;28;20054;-71
2022/05/07 02:19:09;;;;;;;7.38;4.20;;;;;;;11.76;58.92;100313.53;3122736;28;20102;-71
2022/05/07 02:20:41;;;;;;;8.10;4.15;;;;;;;11.73;59.01;100315.44;3122429;28;20582;-71
2022/05/07 02:22:12;;;;;;;11.38;4.20;;;;;;;11.69;59.13;100319.94;3125096;28;20053;-71
2022/05/07 02:23:45;;;;;;;13.30;5.30;;;;;;;11.67;59.28;100318.28;3122710;28;20111;-71
2022/05/07 02:25:17;;;;;;;;;;;;;;;11.63;59.09;100314.13;3122869;28;20049;-72
2022/05/07 02:26:49;;;;;;;6.43;3.88;;;;;;;11.60;59.22;100313.34;3118222;28;19944;-71
2022/05/07 02:28:20;;;;;;;8.68;4.15;;;;;;;11.59;59.60;100311.66;3122408;28;20053;-72
2022/05/07 02:29:52;;;;;;;6.13;3.47;;;;;;;11.59;59.59;100310.78;3122322;28;20427;-72
2022/05/07 02:31:24;;;;;;;7.38;3.90;;;;;;;11.55;59.68;100307.44;3122622;28;20057;-72
2022/05/07 02:32:56;;;;;;;12.60;4.55;;;;;;;11.49;59.51;100305.09;3122477;28;20045;-72
2022/05/07 02:34:28;;;;;;;8.50;4.50;;;;;;;11.50;59.88;100312.00;3122771;28;20050;-72
2022/05/07 02:36:00;;;;;;;12.80;4.68;;;;;;;11.48;59.78;100313.84;3122514;28;20049;-72
2022/05/07 02:37:32;;;;;;;10.48;4.75;;;;;;;11.43;60.00;100305.34;3115791;28;20065;-71
2022/05/07 02:39:05;;;;;;;10.77;4.88;;;;;;;11.47;59.93;100314.72;3122300;28;20519;-71
2022/05/07 02:42:36;;;;;;;10.50;4.78;;;;;;;11.37;60.39;100301.22;3122238;28;20049;-71
2022/05/07 02:44:07;;;;;;;10.55;4.72;;;;;;;11.44;60.33;100308.78;3115939;28;20107;-71
2022/05/07 02:45:39;;;;;;;15.43;4.78;;;;;;;11.43;60.37;100313.16;3122345;28;20053;-71
2022/05/07 02:47:10;;;;;;;10.02;4.60;;;;;;;11.43;60.48;100301.88;3122367;28;20143;-71
2022/05/07 02:48:44;;;;;;;12.85;4.30;;;;;;;11.42;60.41;100302.78;3122195;28;20608;-71
2022/05/07 02:50:16;;;;;;;11.90;5.30;;;;;;;11.37;60.55;100300.38;3122294;28;20053;-71
2022/05/07 02:51:48;;;;;;;10.90;5.10;;;;;;;11.28;60.81;100285.09;3122130;28;20049;-71
2022/05/07 02:53:20;;;;;;;12.50;5.30;;;;;;;11.36;60.96;100307.34;3122214;28;20049;-72
2022/05/07 02:54:53;;;;;;;12.52;5.25;;;;;;;11.35;61.01;100308.25;3122382;28;20053;-70
2022/05/07 02:56:25;;;;;;;8.68;4.97;;;;;;;11.35;60.75;100310.00;3115524;28;20055;-71
2022/05/07 02:57:57;;;;;;;13.40;4.97;;;;;;;11.22;60.84;100291.41;3122061;28;20045;-72
2022/05/07 02:59:29;;;;;;;8.55;4.90;;;;;;;11.33;60.91;100314.47;3121986;28;20554;-70
2022/05/07 03:01:01;;;;;;;12.98;5.10;;;;;;;11.21;60.83;100299.28;3122112;28;20057;-71
2022/05/07 03:02:33;;;;;;;12.93;4.60;;;;;;;11.29;61.14;100316.31;3118448;28;20611;-71
2022/05/07 03:04:04;;;;;;;10.75;4.97;;;;;;;11.25;61.17;100312.16;3121889;28;20221;-71
2022/05/07 03:05:36;;;;;;;13.27;4.63;;;;;;;11.28;60.93;100327.66;3122118;28;20060;-72
2022/05/07 03:07:08;;;;;;;9.40;4.55;;;;;;;11.27;61.00;100314.69;3119705;28;20517;-71
2022/05/07 03:08:40;;;;;;;11.88;4.47;;;;;;;11.28;61.33;100317.25;3121940;28;20061;-71
2022/05/07 03:10:13;;;;;;;11.05;4.40;;;;;;;11.27;61.24;100310.34;3113827;28;20856;-72
2022/05/07 03:11:45;;;;;;;7.90;4.28;;;;;;;11.26;61.09;100326.88;3121988;28;20061;-71
2022/05/07 03:13:17;;;;;;;14.95;5.38;;;;;;;11.25;61.42;100314.75;3121903;28;20054;-71
2022/05/07 03:14:49;;;;;;;9.20;4.85;;;;;;;11.21;61.12;100314.91;3121827;28;20049;-71
2022/05/07 03:16:21;;;;;;;10.43;5.43;;;;;;;11.21;61.29;100317.53;3121965;28;20485;-72
2022/05/07 03:17:52;;;;;;;7.15;4.68;;;;;;;11.16;61.36;100317.72;3122029;28;20061;-71
2022/05/07 03:19:24;;;;;;;15.35;5.10;;;;;;;11.18;61.33;100317.66;3121854;28;20056;-71
2022/05/07 03:20:57;;;;;;;13.05;5.28;;;;;;;11.16;61.43;100318.56;3122215;28;20045;-71
2022/05/07 03:22:29;;;;;;;12.30;5.45;;;;;;;11.10;61.28;100308.38;3123745;28;20067;-72
2022/05/07 03:24:00;;;;;;;11.93;5.75;;;;;;;11.14;61.37;100317.78;3121783;28;20049;-72
2022/05/07 03:25:33;;;;;;;12.85;5.45;;;;;;;11.12;61.60;100319.63;3121842;28;20053;-71
2022/05/07 03:27:06;;;;;;;11.38;5.30;;;;;;;11.10;61.63;100320.56;3121706;28;20103;-71
2022/05/07 03:28:38;;;;;;;9.55;5.43;;;;;;;11.08;61.87;100317.16;3122054;28;20541;-71
2022/05/07 03:30:11;;;;;;;9.43;5.30;;;;;;;11.09;62.00;100316.25;3121817;28;20050;-72
2022/05/07 03:31:44;;;;;;;10.65;5.35;;;;;;;11.09;61.71;100322.34;3121772;28;20053;-71
2022/05/07 03:33:15;;;;;;;13.48;5.70;;;;;;;11.09;61.85;100317.13;3121806;28;20135;-71
2022/05/07 03:34:48;;;;;;;17.23;6.45;;;;;;;10.86;62.00;100278.06;3121767;28;20057;-71
2022/05/07 03:36:20;;;;;;;15.40;5.82;;;;;;;11.11;62.00;100319.66;3121305;28;20498;-71
2022/05/07 03:37:51;;;;;;;12.68;5.50;;;;;;;11.11;62.09;100324.88;3121442;28;20092;-71
2022/05/07 03:39:24;;;;;;;10.52;5.95;;;;;;;11.10;62.12;100328.41;3121590;28;20419;-71
2022/05/07 03:40:57;;;;;;;12.05;5.43;;;;;;;11.09;62.28;100324.94;3121658;28;20050;-71
2022/05/07 03:42:33;;;;;;;;;;;;;;;11.10;62.03;100328.41;3115567;28;20530;-71
2022/05/07 03:44:05;;;;;;;12.38;5.55;;;;;;;11.10;62.28;100334.44;3121502;28;19927;-71
2022/05/07 03:45:37;;;;;;;11.55;5.22;;;;;;;11.11;62.18;100335.28;3121321;28;20064;-71
2022/05/07 03:47:09;;;;;;;12.60;5.57;;;;;;;11.09;62.36;100327.56;3121766;28;20045;-71
2022/05/07 03:48:41;;;;;;;13.45;4.97;;;;;;;11.08;62.64;100320.63;3121684;28;20057;-71
2022/05/07 03:50:13;;;;;;;13.73;5.80;;;;;;;11.02;62.71;100313.03;3121442;28;20119;-71
2022/05/07 03:53:36;;;;;;;18.05;5.35;;;;;;;11.21;62.90;100325.34;3121605;28;20065;-71
2022/05/07 03:55:07;;;;;;;13.55;5.68;;;;;;;11.16;62.61;100323.78;3121436;28;20046;-71
2022/05/07 03:56:41;;;;;;;11.57;5.20;;;;;;;11.04;62.55;100303.41;3120796;28;20065;-71
2022/05/07 03:58:15;;;;;;;11.00;5.70;;;;;;;11.13;62.82;100321.28;3121693;28;20049;-71
2022/05/07 03:59:47;;;;;;;14.98;5.93;;;;;;;11.13;62.98;100333.50;3115271;28;20041;-71
2022/05/07 04:01:19;;;;;;;12.88;6.00;;;;;;;10.97;63.21;100312.38;3121193;28;20057;-71
2022/05/07 04:02:53;;;;;;;14.15;6.00;;;;;;;11.03;63.72;100335.59;3121341;28;20045;-71
2022/05/07 04:04:24;;;;;;;10.68;4.90;;;;;;;10.97;63.71;100333.22;3121175;28;20136;-71
2022/05/07 04:05:57;;;;;;;9.07;5.13;;;;;;;10.60;63.75;100279.06;3121321;28;20084;-70
2022/05/07 04:07:28;;;;;;;13.68;5.57;;;;;;;10.92;64.10;100342.97;3121383;28;20049;-71
2022/05/07 04:09:00;;;;;;;13.80;5.07;;;;;;;10.82;64.27;100337.25;3121140;28;20049;-71
2022/05/07 04:10:32;;;;;;;12.07;5.97;;;;;;;10.86;64.36;100344.06;3121203;28;20095;-71
2022/05/07 04:12:06;;;;;;;11.70;5.72;;;;;;;10.92;64.17;100348.19;3114829;28;20049;-71
2022/05/07 04:13:38;;;;;;;10.82;5.88;;;;;;;10.90;64.37;100342.19;3121241;28;20495;-71
2022/05/07 04:15:11;;;;;;;15.80;5.97;;;;;;;10.95;64.46;100347.22;3121283;28;20111;-71
2022/05/07 04:16:44;;;;;;;16.05;5.95;;;;;;;10.96;64.19;100354.97;3120998;28;20406;-71
2022/05/07 04:18:16;;;;;;;15.52;5.40;;;;;;;10.96;64.34;100347.16;3121387;28;20053;-71
2022/05/07 04:19:48;;;;;;;13.70;7.47;;;;;;;10.96;64.50;100346.31;3120934;28;20518;-71
2022/05/07 04:21:20;;;;;;;14.73;6.35;;;;;;;11.01;64.41;100350.44;3124030;28;20045;-71
2022/05/07 04:22:52;;;;;;;12.70;5.97;;;;;;;11.02;64.57;100357.34;3120690;28;20052;-71
2022/05/07 04:24:24;;;;;;;13.35;6.28;;;;;;;11.04;64.59;100346.88;3114554;28;20049;-71
2022/05/07 04:25:56;;;;;;;13.65;6.43;;;;;;;11.04;64.79;100345.13;3121254;28;20511;-72
2022/05/07 04:27:29;;;;;;;15.27;7.38;;;;;;;11.07;64.58;100342.38;3120998;28;20049;-71
2022/05/07 04:29:01;;;;;;;13.35;5.38;;;;;;;11.17;64.22;100350.69;3121389;28;20070;-71
2022/05/07 04:30:33;;;;;;;14.35;6.20;;;;;;;11.21;64.11;100354.91;3121090;28;20049;-71
2022/05/07 04:32:05;;;;;;;14.35;6.55;;;;;;;11.23;64.06;100347.00;3120954;28;20438;-72
2022/05/07 04:33:37;;;;;;;10.40;5.43;;;;;;;11.29;63.92;100350.22;3121000;28;20110;-72
2022/05/07 04:35:09;;;;;;;14.57;6.55;;;;;;;11.38;63.54;100357.66;3121050;28;20045;-71
2022/05/07 04:36:40;;;;;;;17.35;6.68;;;;;;;11.44;63.73;100353.97;3120956;28;20045;-72
2022/05/07 04:38:12;;;;;;;9.55;5.93;;;;;;;11.48;63.59;100362.53;3120988;28;20064;-71
2022/05/07 04:39:43;;;;;;;17.13;7.20;;;;;;;11.33;63.15;100328.34;3120769;28;20450;-72
2022/05/07 04:41:15;;;;;;;13.77;7.55;;;;;;;11.54;63.29;100360.53;3121054;28;20059;-72
2022/05/07 04:42:48;;;;;;;14.05;5.80;;;;;;;11.57;63.27;100364.78;3120895;28;20107;-69
2022/05/07 04:44:20;;;;;;;16.05;6.35;;;;;;;11.58;63.40;100358.66;3120974;28;20497;-71
2022/05/07 04:45:51;;;;;;;10.35;5.57;;;;;;;11.58;63.09;100361.25;3121236;28;20049;-72
2022/05/07 04:47:23;;;;;;;13.65;5.15;;;;;;;11.66;63.03;100367.03;3120745;28;20045;-71
2022/05/07 04:48:55;;;;;;;13.25;5.63;;;;;;;11.73;62.98;100370.22;3120809;28;20471;-71
2022/05/07 04:50:27;;;;;;;12.25;6.00;;;;;;;11.73;62.91;100359.78;3120639;28;20049;-71
2022/05/07 04:51:59;;;;;;;11.60;6.05;;;;;;;11.82;62.31;100373.28;3120738;28;20107;-72
2022/05/07 04:53:32;;;;;;;13.43;6.25;;;;;;;11.54;62.56;100321.41;3120763;28;20533;-72
2022/05/07 04:55:04;;;;;;;11.98;5.53;;;;;;;11.90;62.34;100372.19;3120783;28;20111;-71
2022/05/07 04:56:36;;;;;;;11.13;5.57;;;;;;;11.97;61.93;100373.59;3120635;28;20057;-71
2022/05/07 04:58:09;;;;;;;14.35;7.55;;;;;;;12.04;62.05;100377.69;3121108;28;20096;-72
2022/05/07 04:59:40;;;;;;;17.45;7.93;;;;;;;12.10;61.82;100368.72;3120584;28;20084;-72
2022/05/07 05:01:12;;;;;;;15.75;7.95;;;;;;;12.12;61.71;100367.72;3120713;28;20046;-72
2022/05/07 05:02:44;;;;;;;21.90;9.07;;;;;;;12.16;61.63;100378.91;3120698;28;20045;-72
2022/05/07 05:04:16;;;;;;;11.98;7.20;;;;;;;12.12;61.03;100374.72;3120906;28;20053;-71
2022/05/07 05:05:48;;;;;;;10.15;6.63;;;;;;;12.13;60.88;100372.06;3120867;28;20037;-71
2022/05/07 05:07:20;;;;;;;14.68;6.00;;;;;;;12.17;61.05;100371.00;3120637;28;20056;-71
2022/05/07 05:08:52;;;;;;;13.55;5.82;;;;;;;12.25;61.05;100368.91;3120735;28;20061;-71
2022/05/07 05:10:26;;;;;;;13.00;5.75;;;;;;;12.27;60.77;100366.22;3120855;28;20053;-72
2022/05/07 05:11:57;;;;;;;20.25;5.18;;;;;;;12.32;60.29;100373.88;3120785;28;20485;-72
2022/05/07 05:13:31;;;;;;;17.33;5.30;;;;;;;12.33;60.27;100375.56;3120813;28;20061;-72
2022/05/07 05:15:02;;;;;;;11.23;4.65;;;;;;;11.99;59.82;100309.16;3120947;28;20065;-71
2022/05/07 05:16:33;;;;;;;10.82;5.88;;;;;;;12.48;59.69;100383.59;3120888;28;20049;-72
2022/05/07 05:18:06;;;;;;;10.68;5.28;;;;;;;12.53;59.70;100371.16;3120467;28;20049;-71
2022/05/07 05:19:37;;;;;;;13.73;5.63;;;;;;;12.64;59.46;100383.75;3120866;28;20054;-71
2022/05/07 05:21:09;;;;;;;14.98;5.65;;;;;;;12.71;59.04;100385.19;3123237;28;20103;-71
2022/05/07 05:22:47;;;;;;;10.55;5.78;;;;;;;12.66;58.58;100378.47;3120961;28;20053;-71
2022/05/07 05:24:19;;;;;;;14.63;5.70;;;;;;;12.74;58.57;100376.34;3120879;28;20128;-71
2022/05/07 05:25:52;;;;;;;9.38;5.05;;;;;;;12.79;58.31;100373.56;3120486;28;20061;-71
2022/05/07 05:27:24;;;;;;;14.17;5.77;;;;;;;12.84;58.38;100380.28;3120801;28;20045;-71
2022/05/07 05:28:56;;;;;;;9.68;4.88;;;;;;;12.80;57.88;100372.63;3120716;28;20315;-71
2022/05/07 05:30:28;;;;;;;10.57;5.15;;;;;;;12.81;57.41;100375.19;3120509;28;20041;-71
2022/05/07 05:32:00;;;;;;;6.88;4.70;;;;;;;12.80;57.39;100385.69;3120558;28;20056;-71
2022/05/07 05:33:32;;;;;;;11.85;5.50;;;;;;;12.78;57.10;100383.16;3120563;28;20151;-71
2022/05/07 05:35:04;;;;;;;10.50;5.28;;;;;;;12.45;57.53;100333.22;3122654;28;20526;-71
2022/05/07 05:36:36;;;;;;;17.77;5.85;;;;;;;12.70;57.34;100387.88;3123088;28;20045;-71
2022/05/07 05:38:08;;;;;;;11.30;4.60;;;;;;;12.68;57.25;100382.69;3122930;28;20099;-71
2022/05/07 05:39:40;;;;;;;24.08;6.43;;;;;;;12.67;57.35;100385.41;3123174;28;20062;-71
2022/05/07 05:41:12;;;;;;;12.23;5.53;;;;;;;12.77;57.31;100386.66;3122864;28;20053;-71
2022/05/07 05:42:44;;;;;;;11.27;6.03;;;;;;;12.81;56.97;100396.09;3122741;28;20049;-71
2022/05/07 05:44:17;;;;;;;10.70;5.30;;;;;;;12.83;57.22;100388.16;3122865;28;20076;-71
2022/05/07 05:45:49;;;;;;;10.18;5.15;;;;;;;12.88;57.41;100387.03;3123131;28;20140;-71
2022/05/07 05:47:21;;;;;;;9.85;5.07;;;;;;;12.92;57.03;100396.44;3122732;28;20050;-70
2022/05/07 05:48:53;;;;;;;11.45;5.55;;;;;;;12.90;57.09;100385.22;3122818;28;20045;-69
2022/05/07 05:50:25;;;;;;;11.88;5.35;;;;;;;12.89;57.03;100391.34;3122910;28;20049;-69
2022/05/07 05:51:56;;;;;;;8.80;4.93;;;;;;;12.86;57.41;100396.72;3122758;28;20507;-70
2022/05/07 05:53:28;;;;;;;8.73;4.85;;;;;;;12.83;57.36;100391.63;3122629;28;20130;-71
2022/05/07 05:54:59;;;;;;;12.55;5.45;;;;;;;12.85;57.25;100397.63;3122883;28;20084;-70
2022/05/07 05:56:31;;;;;;;13.95;6.55;;;;;;;12.84;57.04;100388.09;3122879;28;20454;-70
2022/05/07 05:58:03;;;;;;;10.32;5.30;;;;;;;12.69;57.42;100376.56;3122828;28;20041;-70
2022/05/07 05:59:36;;;;;;;16.52;6.07;;;;;;;12.93;57.23;100400.75;3122815;28;20052;-70
2022/05/07 06:01:08;;;;;;;14.30;5.35;;;;;;;13.00;57.28;100400.47;3122474;28;20103;-71
2022/05/07 06:02:43;;;;;;;14.52;6.05;;;;;;;12.97;57.53;100402.31;3122951;28;20049;-69
2022/05/07 06:04:15;;;;;;;9.82;5.13;;;;;;;12.96;57.30;100398.00;3122340;28;20546;-71
2022/05/07 06:05:47;;;;;;;9.88;5.40;;;;;;;12.98;57.58;100398.78;3120501;28;20045;-72
2022/05/07 06:07:19;;;;;;;13.77;5.13;;;;;;;13.07;57.31;100388.81;3122604;28;20095;-72
2022/05/07 06:08:51;;;;;;;14.25;6.13;;;;;;;13.13;57.16;100393.75;3122816;28;20816;-70
2022/05/07 06:10:23;;;;;;;10.35;5.60;;;;;;;13.19;56.72;100393.47;3122677;28;20045;-70
2022/05/07 06:11:56;;;;;;;13.63;5.95;;;;;;;13.20;56.86;100390.78;3122362;28;20049;-70
2022/05/07 06:13:28;;;;;;;11.63;4.80;;;;;;;13.20;56.53;100392.56;3122637;28;20085;-70
2022/05/07 06:15:04;;;;;;;10.55;4.85;;;;;;;13.15;55.96;100392.78;3122757;28;20056;-70
2022/05/07 06:16:35;;;;;;;9.50;5.60;;;;;;;13.15;56.05;100399.78;3122599;28;20045;-70
2022/05/07 06:18:08;;;;;;;14.95;4.85;;;;;;;13.17;56.05;100392.72;3122637;28;20049;-70
2022/05/07 06:19:40;;;;;;;10.57;5.25;;;;;;;13.23;55.99;100392.44;3122491;28;20099;-71
2022/05/07 06:21:10;;;;;;;10.05;5.35;;;;;;;13.31;55.66;100390.34;3125385;28;20049;-72
2022/05/07 06:22:42;;;;;;;13.18;4.75;;;;;;;13.39;55.73;100395.19;3122962;28;20431;-70
2022/05/07 06:27:53;;;;;;;9.32;4.55;;;;;;;13.55;54.99;100396.16;3122241;28;20037;-70
2022/05/07 06:29:25;;;;;;;11.02;4.97;;;;;;;13.56;54.37;100395.25;3114375;28;20053;-71
2022/05/07 06:30:59;;;;;;;8.68;4.55;;;;;;;13.48;54.30;100386.91;3122507;28;20053;-71
2022/05/07 06:32:34;;;;;;;12.75;4.82;;;;;;;13.62;54.51;100392.31;3122419;28;20045;-71
2022/05/07 06:34:07;;;;;;;10.20;4.70;;;;;;;13.74;54.11;100390.03;3122414;28;20045;-71
2022/05/07 06:35:38;;;;;;;14.25;5.70;;;;;;;13.81;53.88;100384.44;3122547;28;20095;-70
2022/05/07 06:37:11;;;;;;;17.55;5.72;;;;;;;13.91;53.92;100389.22;3122306;28;20046;-71
2022/05/07 06:38:43;;;;;;;14.90;5.10;;;;;;;13.97;53.90;100384.50;3122279;28;20581;-71
2022/05/07 06:40:15;;;;;;;13.52;5.38;;;;;;;14.01;53.97;100380.81;3122475;28;20060;-71
2022/05/07 06:41:48;;;;;;;13.20;5.03;;;;;;;14.14;53.61;100391.53;3122292;28;20049;-70
2022/05/07 06:43:20;;;;;;;11.60;5.20;;;;;;;14.19;53.62;100381.66;3116408;28;20080;-69
2022/05/07 06:44:52;;;;;;;12.80;4.95;;;;;;;14.31;53.45;100390.66;3121583;28;20057;-71
2022/05/07 06:46:25;;;;;;;8.25;4.65;;;;;;;14.39;53.29;100383.25;3122453;28;20577;-71
2022/05/07 06:47:57;;;;;;;8.88;5.00;;;;;;;14.37;53.01;100371.16;3122295;28;20084;-72
2022/05/07 06:49:29;;;;;;;15.10;5.00;;;;;;;14.54;53.03;100386.88;3122099;28;20049;-71
2022/05/07 06:51:01;;;;;;;11.55;4.80;;;;;;;14.56;52.50;100385.88;3122269;28;20053;-71
2022/05/07 06:52:42;;;;;;;16.90;7.55;;;;;;;14.52;52.54;100383.50;3122282;28;20050;-69
2022/05/07 06:54:14;;;;;;;12.20;5.53;;;;;;;14.51;52.50;100372.16;3117262;28;20058;-71
2022/05/07 06:55:59;;;;;;;9.70;5.00;;;;;;;14.67;52.72;100387.97;3122097;28;20049;-70
2022/05/07 06:57:30;;;;;;;10.55;5.63;;;;;;;14.80;52.38;100390.75;3122079;28;20049;-70
2022/05/07 06:59:03;;;;;;;7.53;4.40;;;;;;;14.56;51.96;100367.53;3122202;28;20600;-69
2022/05/07 07:00:34;;;;;;;12.32;5.35;;;;;;;14.68;51.57;100392.25;3121950;28;20434;-70
2022/05/07 07:02:08;;;;;;;10.02;4.88;;;;;;;14.73;51.68;100395.50;3114912;28;20462;-69
2022/05/07 07:03:40;;;;;;;15.65;5.95;;;;;;;14.73;51.65;100385.00;3122008;28;20573;-70
2022/05/07 07:05:11;;;;;;;11.68;4.78;;;;;;;14.86;51.62;100394.84;3122293;28;20057;-71
2022/05/07 07:06:43;;;;;;;11.65;4.93;;;;;;;14.84;51.55;100371.31;3121867;28;20045;-71
2022/05/07 07:08:15;;;;;;;12.18;4.53;;;;;;;15.03;51.33;100384.28;3122101;28;20046;-70
2022/05/07 07:09:47;;;;;;;14.15;4.85;;;;;;;15.16;51.16;100390.53;3122142;28;20057;-70
2022/05/07 07:11:21;;;;;;;11.18;5.10;;;;;;;15.26;51.29;100390.88;3122091;28;20123;-70
2022/05/07 07:12:53;;;;;;;9.82;4.75;;;;;;;15.37;50.97;100387.66;3122092;28;20076;-72
2022/05/07 07:14:24;;;;;;;11.68;4.75;;;;;;;15.44;50.74;100382.00;3122149;28;20049;-70
2022/05/07 07:15:56;;;;;;;13.35;4.78;;;;;;;15.46;50.33;100382.75;3121948;28;20045;-71
2022/05/07 07:17:32;;;;;;;13.35;5.65;;;;;;;15.55;50.54;100386.63;3122152;28;20419;-70